createdAt,value
2019-01-27T00:00:35.057Z,94229
2019-01-27T00:01:44.609Z,94229
2019-01-27T00:02:54.125Z,94227
2019-01-27T00:04:03.633Z,94230
2019-01-27T00:05:13.174Z,94226
2019-01-27T00:06:22.711Z,94218
2019-01-27T00:07:32.265Z,94223
2019-01-27T00:08:41.774Z,94216
2019-01-27T00:09:51.320Z,94219
2019-01-27T00:11:00.881Z,94216
2019-01-27T00:12:10.566Z,94208
2019-01-27T00:13:20.092Z,94208
2019-01-27T00:14:29.650Z,94209
2019-01-27T00:15:39.158Z,94207
2019-01-27T00:16:48.718Z,94203
2019-01-27T00:17:58.224Z,94200
2019-01-27T00:19:07.783Z,94200
2019-01-27T00:20:18.307Z,94195
2019-01-27T00:21:27.930Z,94194
2019-01-27T00:22:37.463Z,94191
2019-01-27T00:23:46.993Z,94186
2019-01-27T00:24:56.518Z,94189
2019-01-27T00:26:06.095Z,94188
2019-01-27T00:27:15.670Z,94179
2019-01-27T00:28:25.181Z,94178
2019-01-27T00:29:34.740Z,94172
2019-01-27T00:30:44.265Z,94172
2019-01-27T00:31:53.844Z,94171
2019-01-27T00:33:03.417Z,94167
2019-01-27T00:34:12.955Z,94171
2019-01-27T00:35:21.502Z,94167
2019-01-27T00:36:31.055Z,94163
2019-01-27T00:37:40.596Z,94160
2019-01-27T00:38:50.162Z,94159
2019-01-27T00:39:59.709Z,94152
2019-01-27T00:41:09.260Z,94155
2019-01-27T00:42:18.818Z,94149
2019-01-27T00:43:28.367Z,94147
2019-01-27T00:44:37.914Z,94150
2019-01-27T00:45:47.468Z,94149
2019-01-27T00:46:57.020Z,94147
2019-01-27T00:48:06.589Z,94144
2019-01-27T00:49:16.134Z,94151
2019-01-27T00:50:25.641Z,94144
2019-01-27T00:51:35.168Z,94133
2019-01-27T00:52:44.750Z,94137
2019-01-27T00:53:54.300Z,94139
2019-01-27T00:55:03.812Z,94136
2019-01-27T00:56:13.319Z,94132
2019-01-27T00:57:22.859Z,94131
2019-01-27T00:58:32.389Z,94130
2019-01-27T00:59:41.954Z,94128
2019-01-27T01:00:51.447Z,94131
2019-01-27T01:02:00.973Z,94121
2019-01-27T01:03:10.502Z,94125
2019-01-27T01:04:20.055Z,94126
2019-01-27T01:05:29.574Z,94119
2019-01-27T01:06:39.110Z,94122
2019-01-27T01:07:48.668Z,94126
2019-01-27T01:08:59.196Z,94129
2019-01-27T01:10:08.727Z,94120
2019-01-27T01:11:18.241Z,94120
2019-01-27T01:12:27.823Z,94118
2019-01-27T01:13:37.370Z,94124
2019-01-27T01:14:46.946Z,94120
2019-01-27T01:15:56.508Z,94119
2019-01-27T01:17:06.052Z,94119
2019-01-27T01:18:15.594Z,94118
2019-01-27T01:19:25.124Z,94115
2019-01-27T01:20:34.679Z,94111
2019-01-27T01:21:44.205Z,94116
2019-01-27T01:22:53.775Z,94114
2019-01-27T01:24:03.308Z,94114
2019-01-27T01:25:12.871Z,94114
2019-01-27T01:26:22.407Z,94108
2019-01-27T01:27:31.983Z,94107
2019-01-27T01:28:41.543Z,94111
2019-01-27T01:29:51.049Z,94103
2019-01-27T01:31:00.572Z,94105
2019-01-27T01:32:10.153Z,94101
2019-01-27T01:33:19.701Z,94104
2019-01-27T01:34:29.235Z,94098
2019-01-27T01:35:38.738Z,94095
2019-01-27T01:36:48.310Z,94095
2019-01-27T01:37:57.830Z,94091
2019-01-27T01:39:07.369Z,94091
2019-01-27T01:40:16.897Z,94092
2019-01-27T01:41:26.528Z,94089
2019-01-27T01:42:36.064Z,94082
2019-01-27T01:43:45.629Z,94086
2019-01-27T01:44:55.177Z,94081
2019-01-27T01:46:04.708Z,94080
2019-01-27T01:47:14.282Z,94076
2019-01-27T01:48:23.827Z,94076
2019-01-27T01:49:33.399Z,94078
2019-01-27T01:50:42.940Z,94076
2019-01-27T01:51:52.458Z,94074
2019-01-27T01:53:01.991Z,94073
2019-01-27T01:54:11.534Z,94070
2019-01-27T01:55:21.061Z,94067
2019-01-27T01:56:30.603Z,94063
2019-01-27T01:57:40.121Z,94057
2019-01-27T01:58:49.684Z,94062
2019-01-27T01:59:59.175Z,94059
2019-01-27T02:01:08.731Z,94055
2019-01-27T02:02:18.312Z,94056
2019-01-27T02:03:27.892Z,94054
2019-01-27T02:04:37.420Z,94049
2019-01-27T02:05:46.983Z,94047
2019-01-27T02:06:56.541Z,94051
2019-01-27T02:08:07.085Z,94047
2019-01-27T02:09:16.612Z,94040
2019-01-27T02:10:26.146Z,94040
2019-01-27T02:11:35.709Z,94038
2019-01-27T02:12:45.252Z,94032
2019-01-27T02:13:54.762Z,94032
2019-01-27T02:15:04.288Z,94030
2019-01-27T02:16:13.852Z,94028
2019-01-27T02:17:23.443Z,94031
2019-01-27T02:18:33.007Z,94025
2019-01-27T02:19:42.547Z,94021
2019-01-27T02:20:52.097Z,94023
2019-01-27T02:22:01.650Z,94023
2019-01-27T02:23:11.212Z,94013
2019-01-27T02:24:20.744Z,94014
2019-01-27T02:25:30.262Z,94013
2019-01-27T02:26:39.771Z,94005
2019-01-27T02:27:49.313Z,94005
2019-01-27T02:28:58.852Z,94003
2019-01-27T02:30:08.384Z,93997
2019-01-27T02:31:17.924Z,94002
2019-01-27T02:32:27.476Z,93994
2019-01-27T02:33:37.030Z,93996
2019-01-27T02:34:46.553Z,93994
2019-01-27T02:35:56.074Z,93988
2019-01-27T02:37:05.599Z,93990
2019-01-27T02:38:15.171Z,93988
2019-01-27T02:39:24.688Z,93986
2019-01-27T02:40:34.218Z,93989
2019-01-27T02:41:43.804Z,93982
2019-01-27T02:42:53.358Z,93983
2019-01-27T02:44:02.991Z,93980
2019-01-27T02:45:12.517Z,93983
2019-01-27T02:46:22.092Z,93981
2019-01-27T02:47:31.602Z,93977
2019-01-27T02:48:41.129Z,93978
2019-01-27T02:49:50.639Z,93974
2019-01-27T02:51:00.236Z,93971
2019-01-27T02:52:09.772Z,93974
2019-01-27T02:53:19.338Z,93971
2019-01-27T02:54:28.875Z,93971
2019-01-27T02:55:38.394Z,93970
2019-01-27T02:56:47.983Z,93966
2019-01-27T02:57:57.506Z,93960
2019-01-27T02:59:07.056Z,93961
2019-01-27T03:00:16.583Z,93960
2019-01-27T03:01:26.113Z,93958
2019-01-27T03:02:35.689Z,93951
2019-01-27T03:03:45.228Z,93956
2019-01-27T03:04:54.744Z,93951
2019-01-27T03:06:04.288Z,93953
2019-01-27T03:07:13.826Z,93944
2019-01-27T03:08:23.362Z,93937
2019-01-27T03:09:32.869Z,93925
2019-01-27T03:10:42.430Z,93925
2019-01-27T03:11:52.041Z,93923
2019-01-27T03:13:01.597Z,93920
2019-01-27T03:14:11.125Z,93920
2019-01-27T03:15:20.648Z,93915
2019-01-27T03:16:30.225Z,93917
2019-01-27T03:17:39.765Z,93912
2019-01-27T03:18:49.282Z,93916
2019-01-27T03:19:58.846Z,93914
2019-01-27T03:21:08.387Z,93917
2019-01-27T03:22:17.937Z,93912
2019-01-27T03:23:27.478Z,93911
2019-01-27T03:24:37.018Z,93904
2019-01-27T03:25:46.658Z,93906
2019-01-27T03:26:56.244Z,93900
2019-01-27T03:28:05.768Z,93899
2019-01-27T03:29:15.284Z,93901
2019-01-27T03:30:24.841Z,93895
2019-01-27T03:31:34.425Z,93895
2019-01-27T03:32:43.947Z,93894
2019-01-27T03:33:53.501Z,93888
2019-01-27T03:35:03.035Z,93883
2019-01-27T03:36:12.578Z,93881
2019-01-27T03:37:22.098Z,93884
2019-01-27T03:38:30.615Z,93877
2019-01-27T03:39:40.149Z,93875
2019-01-27T03:40:49.665Z,93875
2019-01-27T03:41:59.223Z,93873
2019-01-27T03:43:08.850Z,93867
2019-01-27T03:44:18.395Z,93870
2019-01-27T03:45:27.882Z,93869
2019-01-27T03:46:37.410Z,93863
2019-01-27T03:47:46.966Z,93860
2019-01-27T03:48:56.495Z,93857
2019-01-27T03:50:06.027Z,93854
2019-01-27T03:51:15.561Z,93855
2019-01-27T03:52:25.061Z,93853
2019-01-27T03:53:34.579Z,93846
2019-01-27T03:54:44.116Z,93841
2019-01-27T03:55:53.667Z,93844
2019-01-27T03:57:03.243Z,93837
2019-01-27T03:58:12.800Z,93829
2019-01-27T03:59:22.329Z,93828
2019-01-27T04:00:31.888Z,93821
2019-01-27T04:01:41.427Z,93822
2019-01-27T04:02:50.978Z,93819
2019-01-27T04:04:00.512Z,93814
2019-01-27T04:05:10.023Z,93812
2019-01-27T04:06:19.590Z,93808
2019-01-27T04:07:29.132Z,93810
2019-01-27T04:08:38.662Z,93810
2019-01-27T04:09:48.190Z,93805
2019-01-27T04:10:57.715Z,93801
2019-01-27T04:12:07.259Z,93799
2019-01-27T04:13:16.807Z,93795
2019-01-27T04:14:26.349Z,93793
2019-01-27T04:15:35.858Z,93795
2019-01-27T04:16:45.387Z,93799
2019-01-27T04:17:54.910Z,93795
2019-01-27T04:19:04.458Z,93795
2019-01-27T04:20:13.964Z,93796
2019-01-27T04:21:23.534Z,93796
2019-01-27T04:22:33.076Z,93791
2019-01-27T04:23:42.630Z,93792
2019-01-27T04:24:52.165Z,93792
2019-01-27T04:26:01.711Z,93787
2019-01-27T04:27:11.290Z,93787
2019-01-27T04:28:20.872Z,93781
2019-01-27T04:29:30.378Z,93778
2019-01-27T04:30:39.907Z,93779
2019-01-27T04:31:49.454Z,93780
2019-01-27T04:32:58.986Z,93779
2019-01-27T04:34:08.526Z,93775
2019-01-27T04:35:18.044Z,93774
2019-01-27T04:36:27.570Z,93769
2019-01-27T04:37:37.118Z,93770
2019-01-27T04:38:46.664Z,93772
2019-01-27T04:39:56.208Z,93770
2019-01-27T04:41:05.837Z,93778
2019-01-27T04:42:15.364Z,93766
2019-01-27T04:43:24.907Z,93770
2019-01-27T04:44:34.443Z,93760
2019-01-27T04:45:44.050Z,93761
2019-01-27T04:46:53.662Z,93763
2019-01-27T04:48:03.297Z,93766
2019-01-27T04:49:12.893Z,93762
2019-01-27T04:50:22.472Z,93763
2019-01-27T04:51:32.119Z,93763
2019-01-27T04:52:41.737Z,93760
2019-01-27T04:53:51.361Z,93757
2019-01-27T04:55:00.934Z,93762
2019-01-27T04:56:10.510Z,93759
2019-01-27T04:57:20.156Z,93765
2019-01-27T04:58:29.755Z,93766
2019-01-27T04:59:39.343Z,93763
2019-01-27T05:00:48.945Z,93760
2019-01-27T05:01:58.590Z,93758
2019-01-27T05:03:08.171Z,93754
2019-01-27T05:04:17.763Z,93750
2019-01-27T05:05:27.397Z,93746
2019-01-27T05:06:37.028Z,93742
2019-01-27T05:07:46.649Z,93746
2019-01-27T05:08:56.270Z,93749
2019-01-27T05:10:05.935Z,93744
2019-01-27T05:11:16.529Z,93752
2019-01-27T05:12:26.111Z,93741
2019-01-27T05:13:35.676Z,93738
2019-01-27T05:14:45.293Z,93739
2019-01-27T05:15:54.945Z,93740
2019-01-27T05:17:04.590Z,93740
2019-01-27T05:18:14.197Z,93740
2019-01-27T05:19:23.784Z,93736
2019-01-27T05:20:33.365Z,93737
2019-01-27T05:21:42.954Z,93727
2019-01-27T05:22:52.607Z,93729
2019-01-27T05:24:01.178Z,93727
2019-01-27T05:25:10.734Z,93727
2019-01-27T05:26:20.263Z,93729
2019-01-27T05:27:29.810Z,93721
2019-01-27T05:28:39.357Z,93724
2019-01-27T05:29:48.900Z,93723
2019-01-27T05:30:58.441Z,93724
2019-01-27T05:32:08.001Z,93728
2019-01-27T05:33:17.535Z,93722
2019-01-27T05:34:27.088Z,93725
2019-01-27T05:35:36.592Z,93727
2019-01-27T05:36:47.187Z,93726
2019-01-27T05:37:55.715Z,93730
2019-01-27T05:39:05.239Z,93730
2019-01-27T05:40:14.780Z,93732
2019-01-27T05:41:24.290Z,93727
2019-01-27T05:42:33.809Z,93728
2019-01-27T05:43:43.353Z,93727
2019-01-27T05:44:52.859Z,93720
2019-01-27T05:46:02.391Z,93722
2019-01-27T05:47:11.920Z,93722
2019-01-27T05:48:21.448Z,93710
2019-01-27T05:49:30.970Z,93713
2019-01-27T05:50:40.534Z,93712
2019-01-27T05:51:50.059Z,93706
2019-01-27T05:52:59.595Z,93702
2019-01-27T05:54:09.131Z,93700
2019-01-27T05:55:18.663Z,93700
2019-01-27T05:56:28.205Z,93698
2019-01-27T05:57:37.751Z,93693
2019-01-27T05:58:47.279Z,93689
2019-01-27T05:59:56.808Z,93694
2019-01-27T06:01:07.335Z,93691
2019-01-27T06:02:16.877Z,93692
2019-01-27T06:03:26.409Z,93695
2019-01-27T06:04:35.939Z,93690
2019-01-27T06:05:45.442Z,93690
2019-01-27T06:06:54.993Z,93689
2019-01-27T06:08:04.566Z,93686
2019-01-27T06:09:14.082Z,93689
2019-01-27T06:10:23.592Z,93693
2019-01-27T06:11:33.136Z,93686
2019-01-27T06:12:42.688Z,93682
2019-01-27T06:13:52.238Z,93687
2019-01-27T06:15:01.721Z,93684
2019-01-27T06:16:11.237Z,93674
2019-01-27T06:17:20.762Z,93670
2019-01-27T06:18:30.308Z,93674
2019-01-27T06:19:39.884Z,93669
2019-01-27T06:20:49.419Z,93666
2019-01-27T06:21:58.950Z,93661
2019-01-27T06:23:08.528Z,93661
2019-01-27T06:24:18.081Z,93656
2019-01-27T06:25:27.615Z,93657
2019-01-27T06:26:37.221Z,93659
2019-01-27T06:27:46.791Z,93660
2019-01-27T06:28:56.335Z,93655
2019-01-27T06:30:05.849Z,93656
2019-01-27T06:31:15.374Z,93657
2019-01-27T06:32:24.918Z,93656
2019-01-27T06:33:34.484Z,93651
2019-01-27T06:34:44.003Z,93655
2019-01-27T06:35:53.600Z,93655
2019-01-27T06:37:03.110Z,93656
2019-01-27T06:38:12.639Z,93650
2019-01-27T06:39:22.177Z,93654
2019-01-27T06:40:31.713Z,93654
2019-01-27T06:41:41.245Z,93655
2019-01-27T06:42:50.772Z,93650
2019-01-27T06:44:00.361Z,93644
2019-01-27T06:45:09.871Z,93647
2019-01-27T06:46:19.415Z,93644
2019-01-27T06:47:28.922Z,93640
2019-01-27T06:48:38.469Z,93636
2019-01-27T06:49:47.987Z,93637
2019-01-27T06:50:57.521Z,93634
2019-01-27T06:52:07.049Z,93637
2019-01-27T06:53:16.620Z,93632
2019-01-27T06:54:26.175Z,93635
2019-01-27T06:55:35.704Z,93629
2019-01-27T06:56:45.248Z,93632
2019-01-27T06:57:54.789Z,93627
2019-01-27T06:59:04.308Z,93629
2019-01-27T07:00:13.825Z,93629
2019-01-27T07:01:23.335Z,93626
2019-01-27T07:02:32.864Z,93618
2019-01-27T07:03:42.422Z,93626
2019-01-27T07:04:51.932Z,93628
2019-01-27T07:06:01.456Z,93625
2019-01-27T07:07:10.971Z,93623
2019-01-27T07:08:20.582Z,93622
2019-01-27T07:09:30.094Z,93616
2019-01-27T07:10:39.637Z,93613
2019-01-27T07:11:49.196Z,93614
2019-01-27T07:12:58.740Z,93612
2019-01-27T07:14:08.290Z,93610
2019-01-27T07:15:17.845Z,93609
2019-01-27T07:16:27.368Z,93606
2019-01-27T07:17:36.906Z,93611
2019-01-27T07:18:46.427Z,93602
2019-01-27T07:19:55.973Z,93605
2019-01-27T07:21:05.497Z,93604
2019-01-27T07:22:15.046Z,93604
2019-01-27T07:23:24.574Z,93604
2019-01-27T07:24:34.099Z,93604
2019-01-27T07:25:43.648Z,93598
2019-01-27T07:26:53.149Z,93598
2019-01-27T07:28:02.652Z,93593
2019-01-27T07:29:12.196Z,93589
2019-01-27T07:30:21.784Z,93580
2019-01-27T07:31:31.345Z,93581
2019-01-27T07:32:40.895Z,93577
2019-01-27T07:33:50.458Z,93575
2019-01-27T07:34:59.950Z,93572
2019-01-27T07:36:09.469Z,93568
2019-01-27T07:37:19.024Z,93567
2019-01-27T07:38:28.595Z,93559
2019-01-27T07:39:38.145Z,93562
2019-01-27T07:40:47.686Z,93558
2019-01-27T07:41:57.254Z,93563
2019-01-27T07:43:06.803Z,93556
2019-01-27T07:44:16.326Z,93556
2019-01-27T07:45:25.840Z,93551
2019-01-27T07:46:35.342Z,93556
2019-01-27T07:47:44.873Z,93556
2019-01-27T07:48:54.419Z,93555
2019-01-27T07:50:03.952Z,93545
2019-01-27T07:51:13.505Z,93546
2019-01-27T07:52:23.025Z,93555
2019-01-27T07:53:32.540Z,93550
2019-01-27T07:54:42.098Z,93548
2019-01-27T07:55:51.647Z,93550
2019-01-27T07:57:01.191Z,93547
2019-01-27T07:58:10.705Z,93549
2019-01-27T07:59:20.269Z,93548
2019-01-27T08:00:29.807Z,93541
2019-01-27T08:01:39.339Z,93544
2019-01-27T08:02:48.882Z,93540
2019-01-27T08:03:58.428Z,93538
2019-01-27T08:05:07.978Z,93540
2019-01-27T08:06:17.530Z,93543
2019-01-27T08:07:27.046Z,93537
2019-01-27T08:08:36.573Z,93536
2019-01-27T08:09:46.100Z,93535
2019-01-27T08:10:55.642Z,93533
2019-01-27T08:12:05.193Z,93525
2019-01-27T08:13:14.771Z,93528
2019-01-27T08:14:24.331Z,93529
2019-01-27T08:15:33.851Z,93531
2019-01-27T08:16:43.406Z,93531
2019-01-27T08:17:52.929Z,93527
2019-01-27T08:19:02.475Z,93518
2019-01-27T08:20:12.024Z,93527
2019-01-27T08:21:21.573Z,93524
2019-01-27T08:22:31.102Z,93524
2019-01-27T08:23:40.614Z,93523
2019-01-27T08:24:50.223Z,93521
2019-01-27T08:25:59.769Z,93518
2019-01-27T08:27:09.329Z,93517
2019-01-27T08:28:18.889Z,93519
2019-01-27T08:29:28.443Z,93524
2019-01-27T08:30:38.014Z,93532
2019-01-27T08:31:47.556Z,93531
2019-01-27T08:32:57.096Z,93528
2019-01-27T08:34:06.621Z,93529
2019-01-27T08:35:16.180Z,93531
2019-01-27T08:36:25.695Z,93528
2019-01-27T08:37:35.222Z,93524
2019-01-27T08:38:44.724Z,93525
2019-01-27T08:39:54.281Z,93526
2019-01-27T08:41:03.812Z,93520
2019-01-27T08:42:13.349Z,93517
2019-01-27T08:43:22.886Z,93513
2019-01-27T08:44:32.422Z,93517
2019-01-27T08:45:41.949Z,93516
2019-01-27T08:46:51.500Z,93518
2019-01-27T08:48:01.020Z,93519
2019-01-27T08:49:10.582Z,93512
2019-01-27T08:50:20.126Z,93512
2019-01-27T08:51:29.634Z,93510
2019-01-27T08:52:39.200Z,93504
2019-01-27T08:53:48.735Z,93507
2019-01-27T08:54:58.299Z,93498
2019-01-27T08:56:07.805Z,93498
2019-01-27T08:57:17.345Z,93503
2019-01-27T08:58:26.895Z,93499
2019-01-27T08:59:36.438Z,93500
2019-01-27T09:00:45.982Z,93505
2019-01-27T09:01:55.506Z,93503
2019-01-27T09:03:05.015Z,93498
2019-01-27T09:04:14.560Z,93499
2019-01-27T09:05:24.099Z,93500
2019-01-27T09:06:33.604Z,93499
2019-01-27T09:07:43.121Z,93508
2019-01-27T09:08:52.656Z,93498
2019-01-27T09:10:02.184Z,93500
2019-01-27T09:11:11.767Z,93498
2019-01-27T09:12:21.285Z,93498
2019-01-27T09:13:30.809Z,93497
2019-01-27T09:14:41.776Z,93490
2019-01-27T09:15:49.910Z,93493
2019-01-27T09:16:59.434Z,93491
2019-01-27T09:18:08.988Z,93489
2019-01-27T09:19:18.540Z,93483
2019-01-27T09:20:28.071Z,93484
2019-01-27T09:21:37.590Z,93482
2019-01-27T09:22:47.118Z,93483
2019-01-27T09:23:56.637Z,93482
2019-01-27T09:25:05.163Z,93485
2019-01-27T09:26:14.756Z,93481
2019-01-27T09:27:24.291Z,93479
2019-01-27T09:28:33.805Z,93481
2019-01-27T09:29:43.302Z,93479
2019-01-27T09:30:52.882Z,93477
2019-01-27T09:32:02.457Z,93474
2019-01-27T09:33:11.999Z,93466
2019-01-27T09:34:21.517Z,93470
2019-01-27T09:35:31.057Z,93465
2019-01-27T09:36:40.655Z,93463
2019-01-27T09:37:50.197Z,93463
2019-01-27T09:38:59.730Z,93462
2019-01-27T09:40:09.251Z,93463
2019-01-27T09:41:18.802Z,93466
2019-01-27T09:42:28.334Z,93466
2019-01-27T09:43:37.852Z,93468
2019-01-27T09:44:47.380Z,93469
2019-01-27T09:46:04.994Z,93471
2019-01-27T09:47:07.474Z,93465
2019-01-27T09:48:17.006Z,93467
2019-01-27T09:49:26.555Z,93475
2019-01-27T09:50:36.080Z,93472
2019-01-27T09:51:45.661Z,93471
2019-01-27T09:52:55.185Z,93474
2019-01-27T09:54:04.718Z,93470
2019-01-27T09:55:14.238Z,93463
2019-01-27T09:56:23.810Z,93469
2019-01-27T09:57:32.307Z,93464
2019-01-27T09:58:41.820Z,93466
2019-01-27T09:59:51.362Z,93468
2019-01-27T10:01:00.917Z,93463
2019-01-27T10:02:10.449Z,93464
2019-01-27T10:03:20.019Z,93466
2019-01-27T10:04:29.598Z,93461
2019-01-27T10:05:39.129Z,93460
2019-01-27T10:06:48.714Z,93466
2019-01-27T10:07:58.234Z,93457
2019-01-27T10:09:07.820Z,93457
2019-01-27T10:10:17.330Z,93456
2019-01-27T10:11:26.884Z,93458
2019-01-27T10:12:36.400Z,93459
2019-01-27T10:13:45.928Z,93453
2019-01-27T10:14:55.536Z,93447
2019-01-27T10:16:05.080Z,93446
2019-01-27T10:17:14.599Z,93443
2019-01-27T10:18:24.851Z,93444
2019-01-27T10:19:33.672Z,93449
2019-01-27T10:20:43.191Z,93443
2019-01-27T10:21:52.790Z,93445
2019-01-27T10:23:02.310Z,93449
2019-01-27T10:24:11.974Z,93441
2019-01-27T10:25:21.716Z,93439
2019-01-27T10:26:31.277Z,93440
2019-01-27T10:27:40.819Z,93432
2019-01-27T10:28:50.361Z,93434
2019-01-27T10:29:59.920Z,93433
2019-01-27T10:31:09.504Z,93425
2019-01-27T10:32:19.025Z,93424
2019-01-27T10:33:28.556Z,93420
2019-01-27T10:34:38.080Z,93414
2019-01-27T10:35:47.635Z,93413
2019-01-27T10:36:57.188Z,93409
2019-01-27T10:38:06.705Z,93401
2019-01-27T10:39:16.239Z,93393
2019-01-27T10:40:25.796Z,93390
2019-01-27T10:41:35.338Z,93388
2019-01-27T10:42:44.865Z,93377
2019-01-27T10:43:54.396Z,93383
2019-01-27T10:45:03.928Z,93375
2019-01-27T10:46:13.566Z,93370
2019-01-27T10:47:23.089Z,93372
2019-01-27T10:48:32.594Z,93377
2019-01-27T10:49:42.126Z,93367
2019-01-27T10:50:51.653Z,93371
2019-01-27T10:52:02.110Z,93368
2019-01-27T10:53:12.422Z,93365
2019-01-27T10:54:22.944Z,93364
2019-01-27T10:55:32.477Z,93362
2019-01-27T10:56:42.038Z,93357
2019-01-27T10:57:51.562Z,93354
2019-01-27T10:59:01.062Z,93351
2019-01-27T11:00:10.589Z,93358
2019-01-27T11:01:20.181Z,93354
2019-01-27T11:02:36.371Z,93355
2019-01-27T11:03:40.403Z,93349
2019-01-27T11:04:49.712Z,93349
2019-01-27T11:05:59.255Z,93344
2019-01-27T11:07:08.797Z,93346
2019-01-27T11:08:18.331Z,93347
2019-01-27T11:09:27.859Z,93347
2019-01-27T11:10:37.405Z,93347
2019-01-27T11:11:46.965Z,93344
2019-01-27T11:12:56.474Z,93338
2019-01-27T11:14:06.026Z,93338
2019-01-27T11:15:15.532Z,93334
2019-01-27T11:16:25.063Z,93334
2019-01-27T11:17:34.650Z,93335
2019-01-27T11:18:44.192Z,93330
2019-01-27T11:19:53.704Z,93328
2019-01-27T11:21:03.230Z,93328
2019-01-27T11:22:12.817Z,93326
2019-01-27T11:23:22.321Z,93328
2019-01-27T11:24:30.851Z,93329
2019-01-27T11:25:40.381Z,93324
2019-01-27T11:26:50.037Z,93315
2019-01-27T11:27:59.567Z,93315
2019-01-27T11:29:09.082Z,93313
2019-01-27T11:30:18.597Z,93312
2019-01-27T11:31:28.114Z,93306
2019-01-27T11:32:37.704Z,93306
2019-01-27T11:33:47.234Z,93300
2019-01-27T11:34:56.755Z,93296
2019-01-27T11:36:06.272Z,93293
2019-01-27T11:37:15.862Z,93291
2019-01-27T11:38:25.395Z,93293
2019-01-27T11:39:35.726Z,93282
2019-01-27T11:40:44.573Z,93278
2019-01-27T11:41:54.143Z,93279
2019-01-27T11:43:03.650Z,93282
2019-01-27T11:44:13.179Z,93282
2019-01-27T11:45:22.713Z,93280
2019-01-27T11:46:32.236Z,93279
2019-01-27T11:47:41.823Z,93280
2019-01-27T11:48:51.355Z,93273
2019-01-27T11:50:00.859Z,93276
2019-01-27T11:51:10.393Z,93279
2019-01-27T11:52:19.968Z,93283
2019-01-27T11:53:29.467Z,93279
2019-01-27T11:54:38.983Z,93272
2019-01-27T11:55:48.549Z,93277
2019-01-27T11:56:58.120Z,93282
2019-01-27T11:58:07.702Z,93282
2019-01-27T11:59:17.158Z,93279
2019-01-27T12:00:26.699Z,93276
2019-01-27T12:01:36.211Z,93275
2019-01-27T12:02:46.628Z,93272
2019-01-27T12:03:55.310Z,93263
2019-01-27T12:05:04.845Z,93262
2019-01-27T12:06:14.355Z,93258
2019-01-27T12:07:23.902Z,93253
2019-01-27T12:08:33.453Z,93244
2019-01-27T12:09:42.992Z,93247
2019-01-27T12:10:52.534Z,93244
2019-01-27T12:12:02.136Z,93249
2019-01-27T12:13:11.713Z,93248
2019-01-27T12:14:21.244Z,93248
2019-01-27T12:15:30.767Z,93243
2019-01-27T12:16:40.295Z,93237
2019-01-27T12:17:49.876Z,93231
2019-01-27T12:18:59.449Z,93236
2019-01-27T12:20:08.969Z,93226
2019-01-27T12:21:18.482Z,93223
2019-01-27T12:22:29.043Z,93221
2019-01-27T12:23:38.556Z,93228
2019-01-27T12:24:49.065Z,93225
2019-01-27T12:25:58.633Z,93218
2019-01-27T12:27:08.223Z,93217
2019-01-27T12:28:17.797Z,93217
2019-01-27T12:29:28.309Z,93214
2019-01-27T12:30:37.886Z,93206
2019-01-27T12:31:47.457Z,93209
2019-01-27T12:32:57.030Z,93210
2019-01-27T12:34:07.555Z,93206
2019-01-27T12:35:17.078Z,93200
2019-01-27T12:36:26.588Z,93199
2019-01-27T12:37:36.143Z,93199
2019-01-27T12:38:45.672Z,93200
2019-01-27T12:39:55.250Z,93198
2019-01-27T12:41:04.787Z,93202
2019-01-27T12:42:14.290Z,93197
2019-01-27T12:43:23.877Z,93198
2019-01-27T12:44:33.416Z,93198
2019-01-27T12:45:42.935Z,93198
2019-01-27T12:46:52.447Z,93198
2019-01-27T12:48:02.009Z,93202
2019-01-27T12:49:11.518Z,93204
2019-01-27T12:50:21.041Z,93200
2019-01-27T12:51:30.556Z,93200
2019-01-27T12:52:40.222Z,93197
2019-01-27T12:53:49.767Z,93198
2019-01-27T12:54:59.322Z,93194
2019-01-27T12:56:08.884Z,93194
2019-01-27T12:57:18.446Z,93192
2019-01-27T12:58:27.991Z,93199
2019-01-27T12:59:37.509Z,93195
2019-01-27T13:00:47.020Z,93192
2019-01-27T13:01:56.579Z,93194
2019-01-27T13:03:06.161Z,93197
2019-01-27T13:04:15.694Z,93199
2019-01-27T13:05:25.223Z,93202
2019-01-27T13:06:34.762Z,93196
2019-01-27T13:07:44.326Z,93200
2019-01-27T13:08:53.879Z,93205
2019-01-27T13:10:03.412Z,93205
2019-01-27T13:11:12.990Z,93203
2019-01-27T13:12:22.520Z,93197
2019-01-27T13:13:32.069Z,93196
2019-01-27T13:14:41.593Z,93201
2019-01-27T13:15:51.121Z,93202
2019-01-27T13:17:00.632Z,93199
2019-01-27T13:18:10.184Z,93194
2019-01-27T13:19:19.718Z,93190
2019-01-27T13:20:29.261Z,93185
2019-01-27T13:21:38.766Z,93189
2019-01-27T13:22:48.295Z,93185
2019-01-27T13:23:57.862Z,93189
2019-01-27T13:25:07.369Z,93189
2019-01-27T13:26:16.904Z,93189
2019-01-27T13:27:26.480Z,93186
2019-01-27T13:28:36.044Z,93185
2019-01-27T13:29:45.640Z,93189
2019-01-27T13:30:55.210Z,93186
2019-01-27T13:32:04.763Z,93187
2019-01-27T13:33:14.420Z,93188
2019-01-27T13:34:24.071Z,93186
2019-01-27T13:35:33.788Z,93182
2019-01-27T13:36:43.369Z,93187
2019-01-27T13:37:53.011Z,93175
2019-01-27T13:39:02.721Z,93174
2019-01-27T13:40:12.438Z,93181
2019-01-27T13:41:22.197Z,93177
2019-01-27T13:42:32.059Z,93170
2019-01-27T13:43:41.673Z,93172
2019-01-27T13:44:51.210Z,93173
2019-01-27T13:46:00.817Z,93176
2019-01-27T13:47:10.406Z,93178
2019-01-27T13:48:19.968Z,93182
2019-01-27T13:49:29.485Z,93186
2019-01-27T13:50:39.048Z,93180
2019-01-27T13:51:48.656Z,93193
2019-01-27T13:52:58.162Z,93184
2019-01-27T13:54:07.775Z,93175
2019-01-27T13:55:17.410Z,93174
2019-01-27T13:56:26.945Z,93174
2019-01-27T13:57:36.520Z,93180
2019-01-27T13:58:46.173Z,93168
2019-01-27T13:59:55.787Z,93169
2019-01-27T14:01:05.371Z,93161
2019-01-27T14:02:14.957Z,93176
2019-01-27T14:03:24.589Z,93164
2019-01-27T14:04:34.126Z,93158
2019-01-27T14:05:43.712Z,93168
2019-01-27T14:06:53.253Z,93163
2019-01-27T14:08:02.807Z,93169
2019-01-27T14:09:12.397Z,93171
2019-01-27T14:10:21.965Z,93175
2019-01-27T14:11:31.533Z,93173
2019-01-27T14:12:41.053Z,93186
2019-01-27T14:13:50.637Z,93173
2019-01-27T14:15:00.231Z,93190
2019-01-27T14:16:10.696Z,93187
2019-01-27T14:17:20.252Z,93215
2019-01-27T14:18:29.829Z,93169
2019-01-27T14:19:39.397Z,93180
2019-01-27T14:20:48.950Z,93192
2019-01-27T14:21:58.469Z,93185
2019-01-27T14:23:07.989Z,93178
2019-01-27T14:24:17.560Z,93200
2019-01-27T14:25:27.130Z,93178
2019-01-27T14:26:36.655Z,93181
2019-01-27T14:27:46.189Z,93179
2019-01-27T14:28:55.744Z,93184
2019-01-27T14:30:05.360Z,93164
2019-01-27T14:31:14.907Z,93166
2019-01-27T14:32:24.486Z,93171
2019-01-27T14:33:34.052Z,93161
2019-01-27T14:34:43.657Z,93149
2019-01-27T14:35:53.169Z,93146
2019-01-27T14:37:02.733Z,93161
2019-01-27T14:38:12.274Z,93148
2019-01-27T14:39:21.875Z,93149
2019-01-27T14:40:31.495Z,93145
2019-01-27T14:41:41.096Z,93157
2019-01-27T14:42:50.652Z,93147
2019-01-27T14:44:00.193Z,93153
2019-01-27T14:45:09.737Z,93155
2019-01-27T14:46:19.286Z,93150
2019-01-27T14:47:28.880Z,93143
2019-01-27T14:48:38.461Z,93153
2019-01-27T14:49:48.039Z,93154
2019-01-27T14:50:57.607Z,93152
2019-01-27T14:52:07.120Z,93135
2019-01-27T14:53:16.624Z,93136
2019-01-27T14:54:26.210Z,93150
2019-01-27T14:55:35.744Z,93139